sensor_id;sensor_type;location;lat;lon;timestamp;temperature;humidity
15257;DHT22;7731;50.720;6.912;2024-01-27T00:02:21;3.40;99.90
15257;DHT22;7731;50.720;6.912;2024-01-27T00:04:51;3.20;99.90
15257;DHT22;7731;50.720;6.912;2024-01-27T00:07:24;3.10;99.90
15257;DHT22;7731;50.720;6.912;2024-01-27T00:09:58;3.10;99.90
15257;DHT22;7731;50.720;6.912;2024-01-27T00:12:31;3.00;99.90
15257;DHT22;7731;50.720;6.912;2024-01-27T00:15:02;3.00;99.90
15257;DHT22;7731;50.720;6.912;2024-01-27T00:17:33;3.00;99.90
15257;DHT22;7731;50.720;6.912;2024-01-27T00:20:04;3.00;99.90
15257;DHT22;7731;50.720;6.912;2024-01-27T00:22:35;3.00;99.90
15257;DHT22;7731;50.720;6.912;2024-01-27T00:25:08;3.00;99.90
15257;DHT22;7731;50.720;6.912;2024-01-27T00:27:41;3.10;99.90
15257;DHT22;7731;50.720;6.912;2024-01-27T00:30:15;3.10;99.90
15257;DHT22;7731;50.720;6.912;2024-01-27T00:32:45;3.10;99.90
15257;DHT22;7731;50.720;6.912;2024-01-27T00:35:20;3.10;99.90
15257;DHT22;7731;50.720;6.912;2024-01-27T00:37:51;3.00;99.90
15257;DHT22;7731;50.720;6.912;2024-01-27T00:40:21;3.00;99.90
15257;DHT22;7731;50.720;6.912;2024-01-27T00:42:54;3.00;99.90
15257;DHT22;7731;50.720;6.912;2024-01-27T00:45:24;3.00;99.90
15257;DHT22;7731;50.720;6.912;2024-01-27T00:47:57;3.10;99.90
15257;DHT22;7731;50.720;6.912;2024-01-27T00:50:28;3.00;99.90
15257;DHT22;7731;50.720;6.912;2024-01-27T00:52:58;3.00;99.90
15257;DHT22;7731;50.720;6.912;2024-01-27T00:55:28;2.90;99.90
15257;DHT22;7731;50.720;6.912;2024-01-27T00:58:01;2.80;99.90
15257;DHT22;7731;50.720;6.912;2024-01-27T01:00:31;2.70;99.90
15257;DHT22;7731;50.720;6.912;2024-01-27T01:03:08;2.70;99.90
15257;DHT22;7731;50.720;6.912;2024-01-27T01:05:41;2.70;99.90
15257;DHT22;7731;50.720;6.912;2024-01-27T01:08:11;2.80;99.90
15257;DHT22;7731;50.720;6.912;2024-01-27T01:13:40;2.80;99.90
15257;DHT22;7731;50.720;6.912;2024-01-27T01:16:10;2.70;99.90
15257;DHT22;7731;50.720;6.912;2024-01-27T01:18:41;2.70;99.90
15257;DHT22;7731;50.720;6.912;2024-01-27T01:21:11;2.70;99.90
15257;DHT22;7731;50.720;6.912;2024-01-27T01:23:44;2.70;99.90
15257;DHT22;7731;50.720;6.912;2024-01-27T01:26:14;2.60;99.90
15257;DHT22;7731;50.720;6.912;2024-01-27T01:28:49;2.60;99.90
15257;DHT22;7731;50.720;6.912;2024-01-27T01:31:19;2.70;99.90
15257;DHT22;7731;50.720;6.912;2024-01-27T01:33:52;2.70;99.90
15257;DHT22;7731;50.720;6.912;2024-01-27T01:36:33;2.60;99.90
15257;DHT22;7731;50.720;6.912;2024-01-27T01:39:03;2.60;99.90
15257;DHT22;7731;50.720;6.912;2024-01-27T01:41:34;2.50;99.90
15257;DHT22;7731;50.720;6.912;2024-01-27T01:44:07;2.40;99.90
15257;DHT22;7731;50.720;6.912;2024-01-27T01:46:37;2.40;99.90
15257;DHT22;7731;50.720;6.912;2024-01-27T01:49:08;2.30;99.90
15257;DHT22;7731;50.720;6.912;2024-01-27T01:51:45;2.30;99.90
15257;DHT22;7731;50.720;6.912;2024-01-27T01:54:18;2.30;99.90
15257;DHT22;7731;50.720;6.912;2024-01-27T01:56:55;2.30;99.90
15257;DHT22;7731;50.720;6.912;2024-01-27T01:59:41;2.30;99.90
15257;DHT22;7731;50.720;6.912;2024-01-27T02:02:14;2.30;99.90
15257;DHT22;7731;50.720;6.912;2024-01-27T02:04:45;2.50;99.90
15257;DHT22;7731;50.720;6.912;2024-01-27T02:07:16;2.30;99.90
15257;DHT22;7731;50.720;6.912;2024-01-27T02:09:46;2.30;99.90
15257;DHT22;7731;50.720;6.912;2024-01-27T02:12:19;2.20;99.90
15257;DHT22;7731;50.720;6.912;2024-01-27T02:14:56;2.10;99.90
15257;DHT22;7731;50.720;6.912;2024-01-27T02:17:29;2.10;99.90
15257;DHT22;7731;50.720;6.912;2024-01-27T02:19:59;2.00;99.90
15257;DHT22;7731;50.720;6.912;2024-01-27T02:22:30;1.90;99.90
15257;DHT22;7731;50.720;6.912;2024-01-27T02:25:08;1.90;99.90
15257;DHT22;7731;50.720;6.912;2024-01-27T02:27:38;1.90;99.90
15257;DHT22;7731;50.720;6.912;2024-01-27T02:30:09;1.90;99.90
15257;DHT22;7731;50.720;6.912;2024-01-27T02:32:40;1.80;99.90
15257;DHT22;7731;50.720;6.912;2024-01-27T02:35:10;1.80;99.90
15257;DHT22;7731;50.720;6.912;2024-01-27T02:37:41;1.80;99.90
15257;DHT22;7731;50.720;6.912;2024-01-27T02:40:24;1.80;99.90
15257;DHT22;7731;50.720;6.912;2024-01-27T02:42:54;1.80;99.90
15257;DHT22;7731;50.720;6.912;2024-01-27T02:45:25;1.70;99.90
15257;DHT22;7731;50.720;6.912;2024-01-27T02:47:55;1.70;99.90
15257;DHT22;7731;50.720;6.912;2024-01-27T02:50:26;1.70;99.90
15257;DHT22;7731;50.720;6.912;2024-01-27T02:52:56;1.70;99.90
15257;DHT22;7731;50.720;6.912;2024-01-27T02:55:29;1.70;99.90
15257;DHT22;7731;50.720;6.912;2024-01-27T02:57:59;1.80;99.90
15257;DHT22;7731;50.720;6.912;2024-01-27T03:00:33;1.80;99.90
15257;DHT22;7731;50.720;6.912;2024-01-27T03:03:03;1.90;99.90
15257;DHT22;7731;50.720;6.912;2024-01-27T03:05:37;1.80;99.90
15257;DHT22;7731;50.720;6.912;2024-01-27T03:08:07;1.70;99.90
15257;DHT22;7731;50.720;6.912;2024-01-27T03:10:40;1.70;99.90
15257;DHT22;7731;50.720;6.912;2024-01-27T03:13:21;1.70;99.90
15257;DHT22;7731;50.720;6.912;2024-01-27T03:15:54;1.60;99.90
15257;DHT22;7731;50.720;6.912;2024-01-27T03:18:24;1.50;99.90
15257;DHT22;7731;50.720;6.912;2024-01-27T03:20:55;1.50;99.90
15257;DHT22;7731;50.720;6.912;2024-01-27T03:23:25;1.60;99.90
15257;DHT22;7731;50.720;6.912;2024-01-27T03:26:02;1.60;99.90
15257;DHT22;7731;50.720;6.912;2024-01-27T03:28:33;1.50;99.90
15257;DHT22;7731;50.720;6.912;2024-01-27T03:31:04;1.60;99.90
15257;DHT22;7731;50.720;6.912;2024-01-27T03:33:34;1.50;99.90
15257;DHT22;7731;50.720;6.912;2024-01-27T03:36:11;1.50;99.90
15257;DHT22;7731;50.720;6.912;2024-01-27T03:38:42;1.40;99.90
15257;DHT22;7731;50.720;6.912;2024-01-27T03:41:15;1.50;99.90
15257;DHT22;7731;50.720;6.912;2024-01-27T03:43:46;1.60;99.90
15257;DHT22;7731;50.720;6.912;2024-01-27T03:46:16;1.60;99.90
15257;DHT22;7731;50.720;6.912;2024-01-27T03:48:53;1.50;99.90
15257;DHT22;7731;50.720;6.912;2024-01-27T03:51:23;1.50;99.90
15257;DHT22;7731;50.720;6.912;2024-01-27T03:53:54;1.40;99.90
15257;DHT22;7731;50.720;6.912;2024-01-27T03:56:27;1.50;99.90
15257;DHT22;7731;50.720;6.912;2024-01-27T03:59:12;1.50;99.90
15257;DHT22;7731;50.720;6.912;2024-01-27T04:01:45;1.50;99.90
15257;DHT22;7731;50.720;6.912;2024-01-27T04:04:16;1.50;99.90
15257;DHT22;7731;50.720;6.912;2024-01-27T04:06:46;1.50;99.90
15257;DHT22;7731;50.720;6.912;2024-01-27T04:09:16;1.40;99.90
15257;DHT22;7731;50.720;6.912;2024-01-27T04:11:50;1.50;99.90
15257;DHT22;7731;50.720;6.912;2024-01-27T04:14:23;1.50;99.90
15257;DHT22;7731;50.720;6.912;2024-01-27T04:16:53;1.50;99.90
15257;DHT22;7731;50.720;6.912;2024-01-27T04:19:26;1.40;99.90
15257;DHT22;7731;50.720;6.912;2024-01-27T04:21:56;1.30;99.90
15257;DHT22;7731;50.720;6.912;2024-01-27T04:24:27;1.40;99.90
15257;DHT22;7731;50.720;6.912;2024-01-27T04:27:00;1.30;99.90
15257;DHT22;7731;50.720;6.912;2024-01-27T04:29:37;1.20;99.90
15257;DHT22;7731;50.720;6.912;2024-01-27T04:32:09;1.20;99.90
15257;DHT22;7731;50.720;6.912;2024-01-27T04:34:40;1.20;99.90
15257;DHT22;7731;50.720;6.912;2024-01-27T04:37:13;1.20;99.90
15257;DHT22;7731;50.720;6.912;2024-01-27T04:39:43;1.20;99.90
15257;DHT22;7731;50.720;6.912;2024-01-27T04:42:16;1.20;99.90
15257;DHT22;7731;50.720;6.912;2024-01-27T04:44:47;1.20;99.90
15257;DHT22;7731;50.720;6.912;2024-01-27T04:47:17;1.30;99.90
15257;DHT22;7731;50.720;6.912;2024-01-27T04:49:48;1.40;99.90
15257;DHT22;7731;50.720;6.912;2024-01-27T04:52:18;1.40;99.90
15257;DHT22;7731;50.720;6.912;2024-01-27T04:54:49;1.40;99.90
15257;DHT22;7731;50.720;6.912;2024-01-27T04:57:22;1.40;99.90
15257;DHT22;7731;50.720;6.912;2024-01-27T04:59:52;1.40;99.90
15257;DHT22;7731;50.720;6.912;2024-01-27T05:02:22;1.50;99.90
15257;DHT22;7731;50.720;6.912;2024-01-27T05:04:53;1.50;99.90
15257;DHT22;7731;50.720;6.912;2024-01-27T05:07:23;1.60;99.90
15257;DHT22;7731;50.720;6.912;2024-01-27T05:09:56;1.60;99.90
15257;DHT22;7731;50.720;6.912;2024-01-27T05:12:29;1.50;99.90
15257;DHT22;7731;50.720;6.912;2024-01-27T05:15:00;1.50;99.90
15257;DHT22;7731;50.720;6.912;2024-01-27T05:17:30;1.50;99.90
15257;DHT22;7731;50.720;6.912;2024-01-27T05:20:00;1.70;99.90
15257;DHT22;7731;50.720;6.912;2024-01-27T05:22:34;1.90;99.90
15257;DHT22;7731;50.720;6.912;2024-01-27T05:25:05;1.90;99.90
15257;DHT22;7731;50.720;6.912;2024-01-27T05:27:39;1.80;99.90
15257;DHT22;7731;50.720;6.912;2024-01-27T05:30:16;1.70;99.90
15257;DHT22;7731;50.720;6.912;2024-01-27T05:32:47;1.60;99.90
15257;DHT22;7731;50.720;6.912;2024-01-27T05:35:22;1.60;99.90
15257;DHT22;7731;50.720;6.912;2024-01-27T05:37:54;1.60;99.90
15257;DHT22;7731;50.720;6.912;2024-01-27T05:40:28;1.70;99.90
15257;DHT22;7731;50.720;6.912;2024-01-27T05:43:08;1.80;99.90
15257;DHT22;7731;50.720;6.912;2024-01-27T05:45:38;1.70;99.90
15257;DHT22;7731;50.720;6.912;2024-01-27T05:48:19;1.60;99.90
15257;DHT22;7731;50.720;6.912;2024-01-27T05:50:57;1.50;99.90
15257;DHT22;7731;50.720;6.912;2024-01-27T05:53:30;1.50;99.90
15257;DHT22;7731;50.720;6.912;2024-01-27T05:56:01;1.70;99.90
15257;DHT22;7731;50.720;6.912;2024-01-27T05:58:37;1.70;99.90
15257;DHT22;7731;50.720;6.912;2024-01-27T06:01:07;1.70;99.90
15257;DHT22;7731;50.720;6.912;2024-01-27T06:03:40;1.70;99.90
15257;DHT22;7731;50.720;6.912;2024-01-27T06:06:14;1.60;99.90
15257;DHT22;7731;50.720;6.912;2024-01-27T06:08:44;1.50;99.90
15257;DHT22;7731;50.720;6.912;2024-01-27T06:11:27;1.40;99.90
15257;DHT22;7731;50.720;6.912;2024-01-27T06:14:00;1.40;99.90
15257;DHT22;7731;50.720;6.912;2024-01-27T06:16:30;1.50;99.90
15257;DHT22;7731;50.720;6.912;2024-01-27T06:19:02;1.50;99.90
15257;DHT22;7731;50.720;6.912;2024-01-27T06:21:33;1.50;99.90
15257;DHT22;7731;50.720;6.912;2024-01-27T06:24:03;1.40;99.90
15257;DHT22;7731;50.720;6.912;2024-01-27T06:26:37;1.50;99.90
15257;DHT22;7731;50.720;6.912;2024-01-27T06:29:10;1.60;99.90
15257;DHT22;7731;50.720;6.912;2024-01-27T06:31:41;1.50;99.90
15257;DHT22;7731;50.720;6.912;2024-01-27T06:34:11;1.40;99.90
15257;DHT22;7731;50.720;6.912;2024-01-27T06:36:41;1.50;99.90
15257;DHT22;7731;50.720;6.912;2024-01-27T06:39:11;1.40;99.90
15257;DHT22;7731;50.720;6.912;2024-01-27T06:41:42;1.40;99.90
15257;DHT22;7731;50.720;6.912;2024-01-27T06:44:15;1.30;99.90
15257;DHT22;7731;50.720;6.912;2024-01-27T06:46:53;1.30;99.90
15257;DHT22;7731;50.720;6.912;2024-01-27T06:49:26;1.30;99.90
15257;DHT22;7731;50.720;6.912;2024-01-27T06:51:57;1.40;99.90
15257;DHT22;7731;50.720;6.912;2024-01-27T06:54:30;1.50;99.90
15257;DHT22;7731;50.720;6.912;2024-01-27T06:57:04;1.50;99.90
15257;DHT22;7731;50.720;6.912;2024-01-27T06:59:51;1.50;99.90
15257;DHT22;7731;50.720;6.912;2024-01-27T07:02:26;1.50;99.90
15257;DHT22;7731;50.720;6.912;2024-01-27T07:04:57;1.70;99.90
15257;DHT22;7731;50.720;6.912;2024-01-27T07:07:30;1.80;99.90
15257;DHT22;7731;50.720;6.912;2024-01-27T07:10:00;1.80;99.90
15257;DHT22;7731;50.720;6.912;2024-01-27T07:12:31;1.80;99.90
15257;DHT22;7731;50.720;6.912;2024-01-27T07:15:05;1.80;99.90
15257;DHT22;7731;50.720;6.912;2024-01-27T07:17:45;1.80;99.90
15257;DHT22;7731;50.720;6.912;2024-01-27T07:20:18;1.90;99.90
15257;DHT22;7731;50.720;6.912;2024-01-27T07:22:50;1.90;99.90
15257;DHT22;7731;50.720;6.912;2024-01-27T07:25:20;1.90;99.90
15257;DHT22;7731;50.720;6.912;2024-01-27T07:27:58;1.80;99.90
15257;DHT22;7731;50.720;6.912;2024-01-27T07:30:31;1.70;99.90
15257;DHT22;7731;50.720;6.912;2024-01-27T07:33:02;1.70;99.90
15257;DHT22;7731;50.720;6.912;2024-01-27T07:35:33;1.70;99.90
15257;DHT22;7731;50.720;6.912;2024-01-27T07:38:06;1.70;99.90
15257;DHT22;7731;50.720;6.912;2024-01-27T07:40:36;1.70;99.90
15257;DHT22;7731;50.720;6.912;2024-01-27T07:43:07;1.70;99.90
15257;DHT22;7731;50.720;6.912;2024-01-27T07:45:40;1.70;99.90
15257;DHT22;7731;50.720;6.912;2024-01-27T07:48:12;1.50;99.90
15257;DHT22;7731;50.720;6.912;2024-01-27T07:50:42;1.40;99.90
15257;DHT22;7731;50.720;6.912;2024-01-27T07:53:16;1.40;99.90
15257;DHT22;7731;50.720;6.912;2024-01-27T07:55:49;1.30;99.90
15257;DHT22;7731;50.720;6.912;2024-01-27T07:58:21;1.50;99.90
15257;DHT22;7731;50.720;6.912;2024-01-27T08:00:56;1.50;99.90
15257;DHT22;7731;50.720;6.912;2024-01-27T08:03:26;1.50;99.90
15257;DHT22;7731;50.720;6.912;2024-01-27T08:06:04;1.70;99.90
15257;DHT22;7731;50.720;6.912;2024-01-27T08:08:37;1.70;99.90
15257;DHT22;7731;50.720;6.912;2024-01-27T08:11:13;1.70;99.90
15257;DHT22;7731;50.720;6.912;2024-01-27T08:13:44;1.70;99.90
15257;DHT22;7731;50.720;6.912;2024-01-27T08:16:18;1.60;99.90
15257;DHT22;7731;50.720;6.912;2024-01-27T08:18:48;1.70;99.90
15257;DHT22;7731;50.720;6.912;2024-01-27T08:21:18;1.70;99.90
15257;DHT22;7731;50.720;6.912;2024-01-27T08:23:49;1.80;99.90
15257;DHT22;7731;50.720;6.912;2024-01-27T08:26:28;1.90;99.90
15257;DHT22;7731;50.720;6.912;2024-01-27T08:28:59;2.10;99.90
15257;DHT22;7731;50.720;6.912;2024-01-27T08:31:31;2.30;99.90
15257;DHT22;7731;50.720;6.912;2024-01-27T08:34:04;2.60;99.90
15257;DHT22;7731;50.720;6.912;2024-01-27T08:36:40;3.60;99.90
15257;DHT22;7731;50.720;6.912;2024-01-27T08:39:10;5.00;1.00
15257;DHT22;7731;50.720;6.912;2024-01-27T08:41:42;6.40;1.00
15257;DHT22;7731;50.720;6.912;2024-01-27T08:44:12;8.30;1.00
15257;DHT22;7731;50.720;6.912;2024-01-27T08:46:45;9.70;13.10
15257;DHT22;7731;50.720;6.912;2024-01-27T08:49:15;10.90;1.00
15257;DHT22;7731;50.720;6.912;2024-01-27T08:51:46;11.60;99.90
15257;DHT22;7731;50.720;6.912;2024-01-27T08:54:16;12.10;99.90
15257;DHT22;7731;50.720;6.912;2024-01-27T08:56:46;13.20;1.00
15257;DHT22;7731;50.720;6.912;2024-01-27T08:59:17;13.00;1.00
15257;DHT22;7731;50.720;6.912;2024-01-27T09:01:58;14.10;1.00
15257;DHT22;7731;50.720;6.912;2024-01-27T09:04:31;12.90;1.00
15257;DHT22;7731;50.720;6.912;2024-01-27T09:07:04;12.50;1.00
15257;DHT22;7731;50.720;6.912;2024-01-27T09:09:47;12.60;1.00
15257;DHT22;7731;50.720;6.912;2024-01-27T09:12:17;12.80;1.00
15257;DHT22;7731;50.720;6.912;2024-01-27T09:14:48;13.80;1.00
15257;DHT22;7731;50.720;6.912;2024-01-27T09:17:23;14.40;1.00
15257;DHT22;7731;50.720;6.912;2024-01-27T09:19:54;14.90;1.00
15257;DHT22;7731;50.720;6.912;2024-01-27T09:22:24;15.20;1.00
15257;DHT22;7731;50.720;6.912;2024-01-27T09:24:57;14.40;1.00
15257;DHT22;7731;50.720;6.912;2024-01-27T09:27:30;14.80;1.00
15257;DHT22;7731;50.720;6.912;2024-01-27T09:30:01;13.80;1.00
15257;DHT22;7731;50.720;6.912;2024-01-27T09:32:35;14.00;1.00
15257;DHT22;7731;50.720;6.912;2024-01-27T09:35:07;14.30;1.00
15257;DHT22;7731;50.720;6.912;2024-01-27T09:37:38;14.10;1.00
15257;DHT22;7731;50.720;6.912;2024-01-27T09:40:13;13.80;1.00
15257;DHT22;7731;50.720;6.912;2024-01-27T09:42:50;13.90;1.00
15257;DHT22;7731;50.720;6.912;2024-01-27T09:45:22;14.10;1.00
15257;DHT22;7731;50.720;6.912;2024-01-27T09:48:00;14.40;1.00
15257;DHT22;7731;50.720;6.912;2024-01-27T09:50:34;15.90;1.00
15257;DHT22;7731;50.720;6.912;2024-01-27T09:53:09;16.10;1.00
15257;DHT22;7731;50.720;6.912;2024-01-27T09:55:40;16.50;1.00
15257;DHT22;7731;50.720;6.912;2024-01-27T09:58:15;16.20;1.00
15257;DHT22;7731;50.720;6.912;2024-01-27T10:00:46;15.50;1.00
15257;DHT22;7731;50.720;6.912;2024-01-27T10:03:19;14.40;1.00
15257;DHT22;7731;50.720;6.912;2024-01-27T10:05:51;14.00;1.00
15257;DHT22;7731;50.720;6.912;2024-01-27T10:08:23;14.20;1.00
15257;DHT22;7731;50.720;6.912;2024-01-27T10:10:57;14.10;1.00
15257;DHT22;7731;50.720;6.912;2024-01-27T10:13:27;13.90;1.00
15257;DHT22;7731;50.720;6.912;2024-01-27T10:16:01;14.00;1.00
15257;DHT22;7731;50.720;6.912;2024-01-27T10:18:34;13.90;1.00
15257;DHT22;7731;50.720;6.912;2024-01-27T10:21:12;13.50;1.00
15257;DHT22;7731;50.720;6.912;2024-01-27T10:23:43;13.40;1.00
15257;DHT22;7731;50.720;6.912;2024-01-27T10:26:14;13.90;1.00
15257;DHT22;7731;50.720;6.912;2024-01-27T10:28:52;13.90;1.00
15257;DHT22;7731;50.720;6.912;2024-01-27T10:31:26;13.90;1.00
15257;DHT22;7731;50.720;6.912;2024-01-27T10:34:08;14.20;1.00
15257;DHT22;7731;50.720;6.912;2024-01-27T10:36:46;14.50;1.00
15257;DHT22;7731;50.720;6.912;2024-01-27T10:39:17;14.30;1.00
15257;DHT22;7731;50.720;6.912;2024-01-27T10:41:50;14.10;1.00
15257;DHT22;7731;50.720;6.912;2024-01-27T10:44:23;14.50;1.00
15257;DHT22;7731;50.720;6.912;2024-01-27T10:46:57;14.70;1.00
15257;DHT22;7731;50.720;6.912;2024-01-27T10:49:41;14.70;1.00
15257;DHT22;7731;50.720;6.912;2024-01-27T10:52:15;14.90;1.00
15257;DHT22;7731;50.720;6.912;2024-01-27T10:55:06;15.40;1.00
15257;DHT22;7731;50.720;6.912;2024-01-27T10:57:44;15.10;1.00
15257;DHT22;7731;50.720;6.912;2024-01-27T11:00:23;14.80;1.00
15257;DHT22;7731;50.720;6.912;2024-01-27T11:02:59;13.80;1.00
15257;DHT22;7731;50.720;6.912;2024-01-27T11:05:38;13.20;1.00
15257;DHT22;7731;50.720;6.912;2024-01-27T11:08:12;12.60;1.00
15257;DHT22;7731;50.720;6.912;2024-01-27T11:10:44;12.20;1.00
15257;DHT22;7731;50.720;6.912;2024-01-27T11:13:15;11.90;1.00
15257;DHT22;7731;50.720;6.912;2024-01-27T11:15:51;11.80;1.00
15257;DHT22;7731;50.720;6.912;2024-01-27T11:18:22;12.00;1.00
15257;DHT22;7731;50.720;6.912;2024-01-27T11:20:55;12.20;1.00
15257;DHT22;7731;50.720;6.912;2024-01-27T11:23:35;12.70;1.00
15257;DHT22;7731;50.720;6.912;2024-01-27T11:26:06;13.80;1.00
15257;DHT22;7731;50.720;6.912;2024-01-27T11:28:41;14.10;1.00
15257;DHT22;7731;50.720;6.912;2024-01-27T11:31:11;14.50;1.00
15257;DHT22;7731;50.720;6.912;2024-01-27T11:33:42;15.20;1.00
15257;DHT22;7731;50.720;6.912;2024-01-27T11:36:28;15.30;1.00
15257;DHT22;7731;50.720;6.912;2024-01-27T11:39:00;15.50;1.00
15257;DHT22;7731;50.720;6.912;2024-01-27T11:41:31;15.60;1.00
15257;DHT22;7731;50.720;6.912;2024-01-27T11:44:01;15.60;1.00
15257;DHT22;7731;50.720;6.912;2024-01-27T11:46:31;15.10;1.00
15257;DHT22;7731;50.720;6.912;2024-01-27T11:49:02;14.60;1.00
15257;DHT22;7731;50.720;6.912;2024-01-27T11:51:36;14.30;1.00
15257;DHT22;7731;50.720;6.912;2024-01-27T11:54:09;14.20;1.00
15257;DHT22;7731;50.720;6.912;2024-01-27T11:56:40;13.90;1.00
15257;DHT22;7731;50.720;6.912;2024-01-27T11:59:10;13.30;1.00
15257;DHT22;7731;50.720;6.912;2024-01-27T12:01:50;13.30;1.00
15257;DHT22;7731;50.720;6.912;2024-01-27T12:04:20;13.20;1.00
15257;DHT22;7731;50.720;6.912;2024-01-27T12:06:53;13.90;1.00
15257;DHT22;7731;50.720;6.912;2024-01-27T12:09:24;13.90;1.00
15257;DHT22;7731;50.720;6.912;2024-01-27T12:11:58;14.00;1.00
15257;DHT22;7731;50.720;6.912;2024-01-27T12:14:38;14.30;1.00
15257;DHT22;7731;50.720;6.912;2024-01-27T12:17:15;14.40;1.00
15257;DHT22;7731;50.720;6.912;2024-01-27T12:19:55;13.70;1.00
15257;DHT22;7731;50.720;6.912;2024-01-27T12:22:29;13.90;1.00
15257;DHT22;7731;50.720;6.912;2024-01-27T12:25:08;13.60;1.00
15257;DHT22;7731;50.720;6.912;2024-01-27T12:27:42;13.00;1.00
15257;DHT22;7731;50.720;6.912;2024-01-27T12:30:15;12.40;1.00
15257;DHT22;7731;50.720;6.912;2024-01-27T12:35:50;11.10;1.00
15257;DHT22;7731;50.720;6.912;2024-01-27T12:38:25;11.40;1.00
15257;DHT22;7731;50.720;6.912;2024-01-27T12:41:09;11.50;1.00
15257;DHT22;7731;50.720;6.912;2024-01-27T12:43:39;11.60;1.00
15257;DHT22;7731;50.720;6.912;2024-01-27T12:46:12;11.40;1.00
15257;DHT22;7731;50.720;6.912;2024-01-27T12:48:47;11.10;1.00
15257;DHT22;7731;50.720;6.912;2024-01-27T12:51:23;11.20;1.00
15257;DHT22;7731;50.720;6.912;2024-01-27T12:53:59;10.90;1.00
15257;DHT22;7731;50.720;6.912;2024-01-27T12:56:29;11.00;1.00
15257;DHT22;7731;50.720;6.912;2024-01-27T12:59:04;11.20;1.00
15257;DHT22;7731;50.720;6.912;2024-01-27T13:01:42;11.20;1.00
15257;DHT22;7731;50.720;6.912;2024-01-27T13:04:13;11.40;1.00
15257;DHT22;7731;50.720;6.912;2024-01-27T13:06:46;11.20;1.00
15257;DHT22;7731;50.720;6.912;2024-01-27T13:09:19;11.30;1.00
15257;DHT22;7731;50.720;6.912;2024-01-27T13:11:49;11.10;1.00
15257;DHT22;7731;50.720;6.912;2024-01-27T13:14:25;10.70;1.00
15257;DHT22;7731;50.720;6.912;2024-01-27T13:16:55;10.70;1.00
15257;DHT22;7731;50.720;6.912;2024-01-27T13:19:28;10.70;1.00
15257;DHT22;7731;50.720;6.912;2024-01-27T13:21:58;10.80;1.00
15257;DHT22;7731;50.720;6.912;2024-01-27T13:24:35;10.70;1.00
15257;DHT22;7731;50.720;6.912;2024-01-27T13:27:05;10.80;1.00
15257;DHT22;7731;50.720;6.912;2024-01-27T13:29:39;10.60;1.00
15257;DHT22;7731;50.720;6.912;2024-01-27T13:32:09;10.20;1.00
15257;DHT22;7731;50.720;6.912;2024-01-27T13:34:42;9.90;5.30
15257;DHT22;7731;50.720;6.912;2024-01-27T13:37:14;10.10;7.40
15257;DHT22;7731;50.720;6.912;2024-01-27T13:39:50;10.30;1.00
15257;DHT22;7731;50.720;6.912;2024-01-27T13:42:20;10.10;1.00
15257;DHT22;7731;50.720;6.912;2024-01-27T13:44:53;10.20;1.00
15257;DHT22;7731;50.720;6.912;2024-01-27T13:47:28;10.30;1.00
15257;DHT22;7731;50.720;6.912;2024-01-27T13:50:07;10.30;1.00
15257;DHT22;7731;50.720;6.912;2024-01-27T13:52:45;10.20;1.00
15257;DHT22;7731;50.720;6.912;2024-01-27T13:55:18;10.20;1.00
15257;DHT22;7731;50.720;6.912;2024-01-27T13:58:00;10.20;1.00
15257;DHT22;7731;50.720;6.912;2024-01-27T14:00:31;10.10;1.00
15257;DHT22;7731;50.720;6.912;2024-01-27T14:03:02;10.00;1.00
15257;DHT22;7731;50.720;6.912;2024-01-27T14:05:36;10.00;1.00
15257;DHT22;7731;50.720;6.912;2024-01-27T14:08:14;10.00;1.00
15257;DHT22;7731;50.720;6.912;2024-01-27T14:10:50;10.10;1.00
15257;DHT22;7731;50.720;6.912;2024-01-27T14:13:22;10.00;1.00
15257;DHT22;7731;50.720;6.912;2024-01-27T14:15:53;9.90;1.00
15257;DHT22;7731;50.720;6.912;2024-01-27T14:18:23;10.00;1.00
15257;DHT22;7731;50.720;6.912;2024-01-27T14:20:54;9.90;1.00
15257;DHT22;7731;50.720;6.912;2024-01-27T14:23:27;9.90;1.00
15257;DHT22;7731;50.720;6.912;2024-01-27T14:26:01;9.90;1.00
15257;DHT22;7731;50.720;6.912;2024-01-27T14:28:36;9.90;1.00
15257;DHT22;7731;50.720;6.912;2024-01-27T14:31:06;9.90;1.00
15257;DHT22;7731;50.720;6.912;2024-01-27T14:33:41;9.90;1.00
15257;DHT22;7731;50.720;6.912;2024-01-27T14:36:11;9.80;1.00
15257;DHT22;7731;50.720;6.912;2024-01-27T14:38:42;9.70;1.00
15257;DHT22;7731;50.720;6.912;2024-01-27T14:41:18;9.70;1.00
15257;DHT22;7731;50.720;6.912;2024-01-27T14:43:51;9.70;1.00
15257;DHT22;7731;50.720;6.912;2024-01-27T14:46:24;9.60;1.00
15257;DHT22;7731;50.720;6.912;2024-01-27T14:48:54;9.50;1.00
15257;DHT22;7731;50.720;6.912;2024-01-27T14:51:27;9.50;5.20
15257;DHT22;7731;50.720;6.912;2024-01-27T14:53:58;9.40;15.20
15257;DHT22;7731;50.720;6.912;2024-01-27T14:56:33;9.30;33.70
15257;DHT22;7731;50.720;6.912;2024-01-27T14:59:04;9.20;73.90
15257;DHT22;7731;50.720;6.912;2024-01-27T15:01:37;9.20;99.90
15257;DHT22;7731;50.720;6.912;2024-01-27T15:04:08;9.10;99.90
15257;DHT22;7731;50.720;6.912;2024-01-27T15:06:38;9.00;99.90
15257;DHT22;7731;50.720;6.912;2024-01-27T15:09:09;8.90;99.90
15257;DHT22;7731;50.720;6.912;2024-01-27T15:11:48;8.90;99.90
15257;DHT22;7731;50.720;6.912;2024-01-27T15:14:19;8.80;99.90
15257;DHT22;7731;50.720;6.912;2024-01-27T15:16:51;8.80;99.90
15257;DHT22;7731;50.720;6.912;2024-01-27T15:19:24;8.70;99.90
15257;DHT22;7731;50.720;6.912;2024-01-27T15:22:06;8.70;99.90
15257;DHT22;7731;50.720;6.912;2024-01-27T15:24:36;8.60;99.90
15257;DHT22;7731;50.720;6.912;2024-01-27T15:27:10;8.50;99.90
15257;DHT22;7731;50.720;6.912;2024-01-27T15:29:40;8.50;99.90
15257;DHT22;7731;50.720;6.912;2024-01-27T15:32:10;8.40;99.90
15257;DHT22;7731;50.720;6.912;2024-01-27T15:34:48;8.40;99.90
15257;DHT22;7731;50.720;6.912;2024-01-27T15:37:18;8.30;99.90
15257;DHT22;7731;50.720;6.912;2024-01-27T15:39:49;8.20;99.90
15257;DHT22;7731;50.720;6.912;2024-01-27T15:42:23;8.20;99.90
15257;DHT22;7731;50.720;6.912;2024-01-27T15:44:56;8.10;1.00
15257;DHT22;7731;50.720;6.912;2024-01-27T15:47:29;8.00;1.00
15257;DHT22;7731;50.720;6.912;2024-01-27T15:50:02;7.90;1.00
15257;DHT22;7731;50.720;6.912;2024-01-27T15:52:33;7.80;1.00
15257;DHT22;7731;50.720;6.912;2024-01-27T15:55:04;7.70;1.00
15257;DHT22;7731;50.720;6.912;2024-01-27T15:57:41;7.60;1.00
15257;DHT22;7731;50.720;6.912;2024-01-27T16:00:12;7.50;1.00
15257;DHT22;7731;50.720;6.912;2024-01-27T16:02:43;7.40;1.00
15257;DHT22;7731;50.720;6.912;2024-01-27T16:05:14;7.40;1.00
15257;DHT22;7731;50.720;6.912;2024-01-27T16:07:46;7.30;93.80
15257;DHT22;7731;50.720;6.912;2024-01-27T16:10:23;7.30;99.90
15257;DHT22;7731;50.720;6.912;2024-01-27T16:12:58;7.10;99.90
15257;DHT22;7731;50.720;6.912;2024-01-27T16:15:32;7.10;1.00
15257;DHT22;7731;50.720;6.912;2024-01-27T16:18:03;7.00;1.00
15257;DHT22;7731;50.720;6.912;2024-01-27T16:20:36;6.90;4.90
15257;DHT22;7731;50.720;6.912;2024-01-27T16:23:21;6.80;99.90
15257;DHT22;7731;50.720;6.912;2024-01-27T16:25:51;6.70;99.90
15257;DHT22;7731;50.720;6.912;2024-01-27T16:28:24;6.70;1.00
15257;DHT22;7731;50.720;6.912;2024-01-27T16:30:57;6.60;1.00
15257;DHT22;7731;50.720;6.912;2024-01-27T16:33:30;6.60;1.00
15257;DHT22;7731;50.720;6.912;2024-01-27T16:36:01;6.50;1.00
15257;DHT22;7731;50.720;6.912;2024-01-27T16:38:32;6.40;99.90
15257;DHT22;7731;50.720;6.912;2024-01-27T16:41:02;6.40;99.90
15257;DHT22;7731;50.720;6.912;2024-01-27T16:43:37;6.30;1.00
15257;DHT22;7731;50.720;6.912;2024-01-27T16:46:08;6.20;99.90